Latest Weather Observations for Wyndham Airport

IDD60801

Issued at 8:31 pm CST Tuesday 24 October 2017 (issued every 30 minutes, with the page automatically refreshed every 10 minutes)

About weather observations | Map of weather stations | Latest weather observations for NT | Other Formats
Station Details ID: 001006 Name: WYNDHAM AERO Lat: -15.51 Lon: 128.15 Height: 3.8 m
Data from the previous 72 hours. | See also: Recent months at Wyndham Airport
Date/Time
CST
Temp
°C
App
Temp
°C
Dew
Point
°C
Rel
Hum
%
Delta-T
°C
Wind Press
QNH
hPa
Press
MSL
hPa
Rain since
9am
mm
Dir  Spd
km/h
Gust
km/h
Spd
kts
Gust
kts
24/08:30pm 33.2 30.0 8.6 22 13.8 NE 15 20 8 11 1009.1 1009.1 0.0
24/08:00pm 33.3 30.3 11.8 27 12.7 N 19 24 10 13 1008.7 1008.7 0.0
24/07:30pm 33.8 31.6 14.8 32 11.8 N 20 28 11 15 1008.3 1008.3 0.0
24/07:00pm 35.1 31.4 13.9 28 13.0 N 26 33 14 18 1007.9 1007.9 0.0
24/06:30pm 37.7 35.5 10.9 20 15.9 NNW 13 24 7 13 1007.7 1007.7 0.0
24/06:00pm 39.5 36.6 8.1 15 18.0 NW 13 20 7 11 1007.6 1007.6 0.0
24/05:30pm 40.0 37.2 8.5 15 18.2 WNW 13 19 7 10 1007.4 1007.4 0.0
24/05:00pm 40.5 38.5 8.8 15 18.4 SW 9 13 5 7 1007.4 1007.4 0.0
24/04:30pm 40.0 37.7 7.4 14 18.6 N 9 15 5 8 1007.7 1007.7 0.0
24/04:00pm 39.4 36.7 8.9 16 17.7 NE 13 17 7 9 1007.9 1007.9 0.0
24/03:30pm 40.1 38.3 9.5 16 18.0 WSW 9 15 5 8 1008.2 1008.2 0.0
24/03:00pm 40.6 37.5 8.9 15 18.5 W 15 26 8 14 1008.5 1008.5 0.0
24/02:30pm 39.8 37.2 9.2 16 17.9 NW 13 22 7 12 1008.9 1008.9 0.0
24/02:00pm 39.5 37.7 10.8 18 17.1 NE 11 17 6 9 1009.5 1009.5 0.0
24/01:30pm 39.4 38.0 12.3 20 16.5 WSW 11 24 6 13 1010.0 1010.0 0.0
24/01:00pm 37.7 36.7 12.3 22 15.4 N 9 15 5 8 1010.7 1010.7 0.0
24/12:30pm 37.2 35.8 13.3 24 14.6 SSW 13 17 7 9 1011.4 1011.4 0.0
24/12:00pm 36.9 36.5 14.2 25 14.1 NNW 9 15 5 8 1012.0 1012.0 0.0
24/11:30am 36.1 37.3 17.3 33 12.1 SW 7 13 4 7 1012.4 1012.4 0.0
24/11:00am 34.7 35.0 17.9 37 10.9 W 13 17 7 9 1012.7 1012.7 0.0
24/10:30am 34.3 35.5 18.3 38 10.4 WSW 9 13 5 7 1013.1 1013.1 0.0
24/10:00am 33.5 34.8 17.6 38 10.2 W 7 13 4 7 1013.3 1013.3 0.0
24/09:30am 32.6 34.3 18.4 43 9.2 S 7 11 4 6 1013.4 1013.4 0.0
24/09:00am 31.5 32.6 18.1 44 8.6 ESE 9 13 5 7 1013.4 1013.4 0.0
24/08:30am 30.7 30.9 17.7 45 8.3 ESE 13 17 7 9 1013.3 1013.3 0.0
24/08:00am 28.9 28.6 17.4 49 7.3 SE 15 17 8 9 1013.0 1013.0 0.0
24/07:30am 27.0 26.9 17.8 57 5.8 E 15 17 8 9 1012.8 1012.8 0.0
24/07:00am 26.4 27.9 17.7 58 5.5 S 6 7 3 4 1012.3 1012.3 0.0
24/06:30am 25.2 26.3 16.6 59 5.3 W 6 7 3 4 1011.9 1011.9 0.0
24/06:00am 25.1 27.2 17.3 62 4.9 W 2 7 1 4 1011.4 1011.4 0.0
24/05:30am 24.9 25.0 15.5 56 5.7 NNW 9 11 5 6 1011.0 1011.0 0.0
24/05:00am 24.7 25.0 15.9 58 5.3 NNW 9 11 5 6 1010.8 1010.8 0.0
24/04:30am 24.8 24.8 15.1 54 5.8 NW 9 11 5 6 1010.6 1010.6 0.0
24/04:00am 25.0 25.4 15.3 55 5.8 NW 7 9 4 5 1010.4 1010.4 0.0
24/03:30am 25.5 26.9 14.3 50 6.7 CALM 0 0 0 0 1010.3 1010.3 0.0
24/03:00am 25.9 26.6 14.4 49 6.9 SW 4 7 2 4 1010.3 1010.3 0.0
24/02:30am 25.9 27.1 13.7 47 7.2 CALM 0 0 0 0 1010.3 1010.3 0.0
24/02:00am 26.0 25.7 12.8 44 7.7 S 6 7 3 4 1010.3 1010.3 0.0
24/01:30am 25.7 24.8 12.5 44 7.6 N 9 11 5 6 1010.4 1010.4 0.0
24/01:00am 27.1 26.8 12.7 41 8.4 W 6 7 3 4 1010.5 1010.5 0.0
24/12:30am 27.8 27.3 12.2 38 9.1 W 6 7 3 4 1010.6 1010.6 0.0
24/12:00am 28.9 27.9 11.0 33 10.2 NW 7 9 4 5 1010.9 1010.9 0.0
 
Date/Time
CST
Temp
°C
App
Temp
°C
Dew
Point
°C
Rel
Hum
%
Delta-T
°C
Wind Press
QNH
hPa
Press
MSL
hPa
Rain since
9am
mm
Dir  Spd
km/h
Gust
km/h
Spd
kts
Gust
kts
23/11:30pm 30.0 28.4 11.5 32 10.7 NW 11 17 6 9 1010.9 1010.9 0.0
23/11:00pm 29.4 29.2 11.9 34 10.2 ESE 4 9 2 5 1010.9 1010.9 0.0
23/10:30pm 30.4 29.7 11.4 31 11.0 ESE 6 9 3 5 1010.6 1010.6 0.0
23/10:00pm 30.9 30.3 10.3 28 11.7 N 4 7 2 4 1010.2 1010.2 0.0
23/09:30pm 32.6 29.5 8.8 23 13.4 N 15 19 8 10 1009.8 1009.8 0.0
23/09:00pm 32.5 28.8 9.3 24 13.1 N 19 28 10 15 1009.6 1009.6 0.0
23/08:30pm 32.0 29.4 13.7 33 11.1 NNE 20 30 11 16 1009.4 1009.4 0.0
23/08:00pm 32.5 30.7 15.9 36 10.4 NNE 20 30 11 16 1008.5 1008.5 0.0
23/07:30pm 33.1 30.1 14.7 33 11.3 N 24 35 13 19 1008.0 1008.0 0.0
23/07:00pm 34.0 30.5 14.5 31 12.0 N 26 33 14 18 1007.7 1007.7 0.0
23/06:30pm 35.8 32.7 13.3 26 13.7 N 22 30 12 16 1007.1 1007.1 0.0
23/06:00pm 37.7 35.3 14.3 25 14.6 N 20 28 11 15 1006.9 1006.9 0.0
23/05:30pm 38.4 36.3 13.6 23 15.3 N 17 24 9 13 1006.7 1006.7 0.0
23/05:00pm 38.6 36.4 14.4 24 15.1 NNW 19 26 10 14 1006.7 1006.7 0.0
23/04:30pm 38.4 36.4 15.5 26 14.5 NNW 20 30 11 16 1006.7 1006.7 0.0
23/04:00pm 39.3 38.2 14.3 22 15.6 N 13 24 7 13 1007.0 1007.0 0.0
23/03:30pm 40.2 37.8 8.6 15 18.3 E 11 20 6 11 1007.3 1007.3 0.0
23/03:00pm 39.9 37.2 10.2 17 17.6 NNW 15 28 8 15 1007.3 1007.3 0.0
23/02:30pm 39.6 37.6 7.1 14 18.4 ESE 7 15 4 8 1007.8 1007.8 0.0
23/02:00pm 39.3 36.1 9.8 17 17.3 N 17 28 9 15 1008.0 1008.0 0.0
23/01:30pm 38.6 36.8 10.9 19 16.5 WNW 11 17 6 9 1008.7 1008.7 0.0
23/01:00pm 38.4 36.6 12.2 21 15.9 NE 13 22 7 12 1009.3 1009.3 0.0
23/12:30pm 37.2 36.2 14.5 26 14.2 ENE 13 24 7 13 1010.1 1010.1 0.0
23/12:00pm 36.7 35.7 14.6 26 13.8 N 13 22 7 12 1010.6 1010.6 0.0
23/11:30am 36.4 33.8 11.9 23 14.7 ENE 17 28 9 15 1011.1 1011.1 0.0
23/11:00am 36.8 34.3 12.3 23 14.8 ENE 17 28 9 15 1011.5 1011.5 0.0
23/10:30am 35.4 34.0 13.5 26 13.4 E 13 20 7 11 1011.8 1011.8 0.0
23/10:00am 33.6 36.2 20.0 44 9.0 ENE 6 13 3 7 1012.2 1012.2 0.0
23/09:30am 32.4 35.8 21.6 53 7.3 SE 6 11 3 6 1012.3 1012.3 0.0
23/09:00am 31.6 34.7 21.5 55 6.8 ESE 7 11 4 6 1012.4 1012.4 0.0
23/08:30am 30.2 33.5 22.6 63 5.2 E 9 13 5 7 1012.3 1012.3 0.0
23/08:00am 28.8 31.3 22.5 68 4.3 ESE 13 17 7 9 1012.1 1012.1 0.0
23/07:30am 27.6 30.0 21.6 70 4.0 ESE 11 13 6 7 1011.7 1011.7 0.0
23/07:00am 26.3 28.8 21.1 73 3.4 E 9 13 5 7 1011.5 1011.5 0.0
23/06:30am 25.8 27.4 20.8 74 3.3 E 13 17 7 9 1011.3 1011.3 0.0
23/06:00am 25.7 27.6 20.5 73 3.4 E 11 13 6 7 1011.2 1011.2 0.0
23/05:30am 26.2 27.7 20.5 71 3.7 ESE 13 17 7 9 1010.9 1010.9 0.0
23/05:00am 25.7 27.4 20.9 75 3.2 E 13 17 7 9 1010.5 1010.5 0.0
23/04:30am 25.3 27.3 19.9 72 3.5 ESE 9 9 5 5 1010.2 1010.2 0.0
23/04:00am 25.8 27.7 19.7 69 3.9 ESE 9 11 5 6 1010.2 1010.2 0.0
23/03:30am 25.9 27.2 19.3 67 4.2 ESE 11 13 6 7 1010.1 1010.1 0.0
23/03:00am 26.6 28.4 20.4 69 4.1 E 11 15 6 8 1010.1 1010.1 0.0
23/02:30am 26.8 27.3 18.4 60 5.4 E 13 15 7 8 1010.1 1010.1 0.0
23/02:00am 27.3 26.2 17.2 54 6.3 ESE 19 28 10 15 1009.9 1009.9 0.0
23/01:30am 26.5 26.0 15.8 51 6.5 E 13 17 7 9 1009.5 1009.5 0.0
23/01:00am 26.9 27.3 15.3 49 7.0 E 7 9 4 5 1009.7 1009.7 0.0
23/12:30am 28.0 27.6 15.3 46 7.8 E 11 15 6 8 1009.9 1009.9 0.0
23/12:00am 29.1 27.7 14.5 41 8.8 SE 15 19 8 10 1010.0 1010.0 0.0
 
Date/Time
CST
Temp
°C
App
Temp
°C
Dew
Point
°C
Rel
Hum
%
Delta-T
°C
Wind Press
QNH
hPa
Press
MSL
hPa
Rain since
9am
mm
Dir  Spd
km/h
Gust
km/h
Spd
kts
Gust
kts
22/11:30pm 29.2 27.9 12.6 36 9.8 E 11 17 6 9 1010.0 1010.0 0.0
22/11:00pm 31.2 30.7 12.1 31 11.2 NNW 6 9 3 5 1010.0 1010.0 0.0
22/10:30pm 31.7 31.4 11.5 29 11.8 WSW 4 7 2 4 1010.2 1010.2 0.0
22/10:00pm 32.5 32.5 11.1 27 12.4 ENE 2 7 1 4 1009.9 1009.9 0.0
22/09:30pm 31.5 30.4 10.8 28 11.9 SSW 7 9 4 5 1009.5 1009.5 0.0
22/09:00pm 33.1 31.6 10.4 25 13.1 N 9 15 5 8 1009.3 1009.3 0.0
22/08:30pm 33.9 30.6 11.7 26 13.1 N 20 24 11 13 1008.8 1008.8 0.0
22/08:00pm 34.2 30.8 12.5 27 13.0 N 22 30 12 16 1008.5 1008.5 0.0
22/07:30pm 34.4 31.3 13.3 28 12.8 N 22 28 12 15 1008.1 1008.1 0.0
22/07:00pm 34.7 32.0 13.5 28 12.9 N 20 26 11 14 1007.7 1007.7 0.0
22/06:30pm 35.8 32.9 13.9 27 13.5 N 22 30 12 16 1007.4 1007.4 0.0
22/06:00pm 36.9 33.9 13.6 24 14.3 NNW 22 30 12 16 1007.1 1007.1 0.0
22/05:30pm 38.4 36.6 12.2 21 15.9 N 13 22 7 12 1006.8 1006.8 0.0
22/05:00pm 39.4 37.4 7.0 14 18.3 S 7 15 4 8 1006.7 1006.7 0.0
22/04:30pm 39.5 36.0 7.1 14 18.3 E 15 28 8 15 1006.9 1006.9 0.0
22/04:00pm 39.1 36.5 7.7 15 17.9 N 11 17 6 9 1006.8 1006.8 0.0
22/03:30pm 39.6 36.7 8.1 15 18.1 ENE 13 22 7 12 1007.0 1007.0 0.0
22/03:00pm 38.8 36.1 7.5 15 17.7 NNE 11 24 6 13 1007.4 1007.4 0.0
22/02:30pm 39.5 36.2 8.1 15 18.0 ENE 15 26 8 14 1007.9 1007.9 0.0
22/02:00pm 39.3 36.6 8.9 16 17.6 ENE 13 22 7 12 1008.3 1008.3 0.0
22/01:30pm 38.4 34.1 7.2 15 17.6 NE 19 30 10 16 1008.7 1008.7 0.0
22/01:00pm 39.0 34.1 8.6 16 17.5 SE 24 35 13 19 1009.2 1009.2 0.0
22/12:30pm 38.2 34.0 9.7 18 16.6 ENE 22 35 12 19 1009.8 1009.8 0.0
22/12:00pm 37.8 32.8 9.4 18 16.5 ENE 26 39 14 21 1010.5 1010.5 0.0
22/11:30am 37.9 32.3 10.3 19 16.2 ENE 30 41 16 22 1010.8 1010.8 0.0
22/11:00am 38.1 32.8 11.2 20 16.0 ENE 30 41 16 22 1011.2 1011.2 0.0
22/10:30am 36.2 31.4 11.8 23 14.6 ENE 28 44 15 24 1011.6 1011.6 0.0
22/10:00am 35.8 30.5 11.4 23 14.5 E 30 41 16 22 1011.8 1011.8 0.0
22/09:30am 34.8 28.9 11.2 24 13.9 E 33 46 18 25 1011.9 1011.9 0.0
22/09:00am 34.3 30.4 10.8 24 13.7 ESE 22 41 12 22 1012.0 1012.0 0.0
22/08:30am 32.9 29.7 13.0 30 11.9 ESE 22 32 12 17 1011.9 1011.9 0.0
22/08:00am 30.6 33.7 21.4 58 6.2 ESE 7 11 4 6 1011.6 1011.6 0.0
22/07:30am 28.5 32.2 23.2 73 3.6 E 9 11 5 6 1011.2 1011.2 0.0
22/07:00am 26.9 30.0 22.9 79 2.7 E 11 13 6 7 1011.2 1011.2 0.0
22/06:30am 25.2 28.0 22.3 84 1.9 ESE 11 11 6 6 1010.7 1010.7 0.0
22/06:00am 25.3 28.3 21.2 78 2.7 ESE 7 11 4 6 1010.3 1010.3 0.0
22/05:30am 26.1 30.7 21.7 77 2.9 CALM 0 0 0 0 1010.0 1010.0 0.0
22/05:00am 26.4 30.9 21.6 75 3.2 CALM 0 0 0 0 1009.6 1009.6 0.0
22/04:30am 26.3 30.9 21.7 76 3.1 CALM 0 0 0 0 1009.4 1009.4 0.0
22/04:00am 26.6 31.1 21.6 74 3.3 CALM 0 0 0 0 1009.3 1009.3 0.0
22/03:30am 26.5 29.8 21.5 74 3.3 NNE 6 9 3 5 1009.3 1009.3 0.0
22/03:00am 26.5 30.0 22.1 77 3.0 E 7 11 4 6 1009.5 1009.5 0.0
22/02:30am 27.1 31.0 22.5 76 3.1 N 6 9 3 5 1009.6 1009.6 0.0
22/02:00am 27.0 30.0 22.0 74 3.4 E 9 9 5 5 1009.7 1009.7 0.0
22/01:30am 27.8 30.2 22.3 72 3.7 ESE 13 15 7 8 1009.9 1009.9 0.0
22/01:00am 27.6 29.9 21.4 69 4.1 ESE 11 15 6 8 1010.0 1010.0 0.0
22/12:30am 28.3 30.6 21.3 65 4.7 ESE 11 15 6 8 1010.1 1010.1 0.0
22/12:00am 29.3 31.2 21.3 62 5.3 ESE 13 19 7 10 1010.3 1010.3 0.0
 
Date/Time
CST
Temp
°C
App
Temp
°C
Dew
Point
°C
Rel
Hum
%
Delta-T
°C
Wind Press
QNH
hPa
Press
MSL
hPa
Rain since
9am
mm
Dir  Spd
km/h
Gust
km/h
Spd
kts
Gust
kts
21/11:30pm 29.7 31.0 20.8 58 5.9 SE 15 19 8 10 1010.4 1010.4 0.0
21/11:00pm 29.6 31.8 20.5 58 6.0 ESE 9 13 5 7 1010.5 1010.5 0.0
21/10:30pm 30.0 31.2 20.0 55 6.6 ESE 13 15 7 8 1010.3 1010.3 0.0

Other Formats:

Comma delimited format used in spreadsheet applications
http://www.bom.gov.au/fwo/IDD60801/IDD60801.95214.axf

JavaScript Object Notation format (JSON) in row-major order
http://www.bom.gov.au/fwo/IDD60801/IDD60801.95214.json